createdAt,value
2018-12-13T00:00:15.527Z,5.70
2018-12-13T00:02:43.635Z,5.70
2018-12-13T00:05:11.752Z,5.60
2018-12-13T00:07:39.855Z,5.60
2018-12-13T00:10:07.963Z,5.60
2018-12-13T00:12:36.061Z,5.60
2018-12-13T00:15:04.534Z,5.60
2018-12-13T00:17:32.626Z,5.60
2018-12-13T00:20:00.733Z,5.60
2018-12-13T00:22:28.826Z,5.50
2018-12-13T00:24:56.924Z,5.50
2018-12-13T00:27:25.049Z,5.50
2018-12-13T00:29:53.167Z,5.50
2018-12-13T00:32:21.279Z,5.50
2018-12-13T00:34:49.375Z,5.50
2018-12-13T00:37:17.488Z,5.50
2018-12-13T00:39:45.585Z,5.50
2018-12-13T00:42:13.703Z,5.50
2018-12-13T00:44:41.795Z,5.40
2018-12-13T00:47:09.905Z,5.40
2018-12-13T00:49:38.001Z,5.40
2018-12-13T00:52:06.105Z,5.40
2018-12-13T00:54:34.194Z,5.40
2018-12-13T00:57:02.300Z,5.40
2018-12-13T00:59:30.403Z,5.40
2018-12-13T01:01:58.511Z,5.30
2018-12-13T01:04:26.616Z,5.30
2018-12-13T01:06:54.751Z,5.30
2018-12-13T01:09:22.861Z,5.30
2018-12-13T01:11:50.980Z,5.30
2018-12-13T01:14:19.088Z,5.30
2018-12-13T01:16:47.193Z,5.30
2018-12-13T01:19:15.284Z,5.30
2018-12-13T01:21:43.391Z,5.30
2018-12-13T01:24:11.544Z,5.30
2018-12-13T01:26:39.739Z,5.20
2018-12-13T01:29:07.848Z,5.20
2018-12-13T01:31:35.962Z,5.20
2018-12-13T01:34:04.055Z,5.20
2018-12-13T01:36:32.173Z,5.20
2018-12-13T01:39:00.267Z,5.20
2018-12-13T01:41:28.579Z,5.20
2018-12-13T01:43:56.702Z,5.20
2018-12-13T01:46:24.821Z,5.20
2018-12-13T01:48:52.917Z,5.10
2018-12-13T01:51:21.028Z,5.10
2018-12-13T01:53:49.133Z,5.10
2018-12-13T01:56:17.248Z,5.10
2018-12-13T01:58:45.353Z,5.10
2018-12-13T02:01:13.461Z,5.10
2018-12-13T02:03:41.554Z,5.10
2018-12-13T02:06:09.659Z,5.00
2018-12-13T02:08:37.760Z,5.00
2018-12-13T02:11:05.879Z,5.00
2018-12-13T02:13:33.980Z,5.00
2018-12-13T02:16:02.110Z,5.00
2018-12-13T02:18:30.217Z,5.00
2018-12-13T02:20:58.331Z,5.00
2018-12-13T02:23:26.554Z,4.90
2018-12-13T02:25:54.672Z,5.00
2018-12-13T02:28:22.782Z,4.90
2018-12-13T02:30:50.952Z,4.90
2018-12-13T02:33:19.129Z,4.90
2018-12-13T02:35:47.247Z,4.90
2018-12-13T02:38:15.380Z,4.90
2018-12-13T02:40:43.481Z,4.90
2018-12-13T02:43:11.593Z,4.80
2018-12-13T02:45:39.689Z,4.90
2018-12-13T02:48:07.787Z,4.80
2018-12-13T02:50:35.888Z,4.80
2018-12-13T02:53:04.012Z,4.80
2018-12-13T02:55:32.108Z,4.80
2018-12-13T02:58:00.230Z,4.80
2018-12-13T03:00:28.361Z,4.80
2018-12-13T03:02:56.490Z,4.80
2018-12-13T03:05:24.617Z,4.80
2018-12-13T03:07:52.723Z,4.80
2018-12-13T03:10:20.831Z,4.80
2018-12-13T03:12:48.964Z,4.70
2018-12-13T03:15:17.056Z,4.70
2018-12-13T03:17:45.161Z,4.80
2018-12-13T03:20:13.265Z,4.70
2018-12-13T03:22:41.373Z,4.70
2018-12-13T03:25:09.474Z,4.70
2018-12-13T03:27:37.585Z,4.70
2018-12-13T03:30:06.339Z,4.70
2018-12-13T03:32:34.472Z,4.70
2018-12-13T03:35:02.590Z,4.70
2018-12-13T03:37:30.714Z,4.70
2018-12-13T03:39:58.825Z,4.70
2018-12-13T03:42:26.937Z,4.70
2018-12-13T03:44:55.032Z,4.70
2018-12-13T03:47:23.131Z,4.70
2018-12-13T03:49:51.230Z,4.70
2018-12-13T03:52:19.345Z,4.70
2018-12-13T03:54:47.449Z,4.60
2018-12-13T03:57:15.575Z,4.60
2018-12-13T03:59:43.683Z,4.60
2018-12-13T04:02:11.808Z,4.60
2018-12-13T04:04:39.919Z,4.60
2018-12-13T04:07:08.045Z,4.60
2018-12-13T04:09:36.150Z,4.60
2018-12-13T04:12:04.440Z,4.60
2018-12-13T04:14:32.542Z,4.60
2018-12-13T04:17:00.664Z,4.60
2018-12-13T04:19:29.001Z,4.70
2018-12-13T04:21:59.105Z,4.70
2018-12-13T04:24:27.367Z,4.70
2018-12-13T04:26:55.468Z,4.70
2018-12-13T04:29:23.584Z,4.70
2018-12-13T04:31:51.715Z,4.70
2018-12-13T04:34:19.804Z,4.70
2018-12-13T04:36:47.935Z,4.70
2018-12-13T04:39:16.035Z,4.70
2018-12-13T04:41:44.147Z,4.80
2018-12-13T04:44:12.260Z,4.80
2018-12-13T04:46:40.393Z,4.80
2018-12-13T04:49:08.502Z,4.80
2018-12-13T04:51:36.611Z,4.80
2018-12-13T04:54:04.722Z,4.80
2018-12-13T04:56:32.826Z,4.80
2018-12-13T04:59:00.940Z,4.80
2018-12-13T05:01:29.050Z,4.80
2018-12-13T05:03:57.168Z,4.80
2018-12-13T05:06:25.281Z,4.70
2018-12-13T05:08:53.390Z,4.70
2018-12-13T05:11:21.485Z,4.70
2018-12-13T05:13:49.597Z,4.70
2018-12-13T05:16:17.696Z,4.70
2018-12-13T05:18:45.810Z,4.70
2018-12-13T05:21:13.934Z,4.70
2018-12-13T05:23:42.049Z,4.70
2018-12-13T05:26:10.152Z,4.70
2018-12-13T05:28:38.255Z,4.70
2018-12-13T05:31:06.371Z,4.70
2018-12-13T05:33:34.494Z,4.70
2018-12-13T05:36:02.616Z,4.70
2018-12-13T05:38:30.734Z,4.70
2018-12-13T05:40:58.868Z,4.70
2018-12-13T05:43:26.990Z,4.70
2018-12-13T05:45:55.102Z,4.70
2018-12-13T05:48:23.215Z,4.70
2018-12-13T05:50:51.333Z,4.70
2018-12-13T05:53:19.470Z,4.70
2018-12-13T05:55:47.641Z,4.80
2018-12-13T05:58:15.772Z,4.70
2018-12-13T06:00:43.868Z,4.80
2018-12-13T06:03:11.993Z,4.80
2018-12-13T06:05:40.100Z,4.80
2018-12-13T06:08:08.239Z,4.80
2018-12-13T06:10:36.347Z,4.80
2018-12-13T06:13:04.467Z,4.80
2018-12-13T06:15:32.598Z,4.80
2018-12-13T06:18:06.675Z,4.80
2018-12-13T06:20:30.888Z,4.90
2018-12-13T06:22:58.993Z,4.90
2018-12-13T06:25:27.119Z,4.90
2018-12-13T06:27:55.235Z,4.90
2018-12-13T06:30:23.346Z,4.90
2018-12-13T06:32:51.452Z,4.90
2018-12-13T06:35:19.574Z,4.90
2018-12-13T06:37:47.684Z,4.90
2018-12-13T06:40:15.809Z,4.90
2018-12-13T06:45:40.653Z,4.90
2018-12-13T06:48:10.099Z,4.90
2018-12-13T06:53:42.540Z,4.90
2018-12-13T06:56:23.705Z,4.90
2018-12-13T06:58:57.841Z,4.90
2018-12-13T07:01:31.888Z,5.00
2018-12-13T07:04:01.777Z,5.00
2018-12-13T07:06:33.824Z,5.00
2018-12-13T07:09:06.246Z,5.00
2018-12-13T07:11:37.313Z,5.00
2018-12-13T07:14:12.045Z,5.00
2018-12-13T07:16:46.755Z,5.00
2018-12-13T07:19:18.439Z,5.00
2018-12-13T07:21:52.695Z,5.00
2018-12-13T07:27:27.495Z,5.00
2018-12-13T07:29:57.384Z,5.00
2018-12-13T07:32:44.716Z,5.00
2018-12-13T07:35:15.863Z,5.00
2018-12-13T07:37:49.665Z,5.00
2018-12-13T07:40:19.031Z,5.00
2018-12-13T07:42:50.321Z,5.00
2018-12-13T07:45:21.598Z,5.00
2018-12-13T07:47:55.399Z,5.00
2018-12-13T07:50:33.223Z,5.00
2018-12-13T07:53:07.971Z,5.00
2018-12-13T07:55:39.531Z,5.10
2018-12-13T07:58:10.756Z,5.10
2018-12-13T08:00:44.560Z,5.00
2018-12-13T08:03:16.002Z,5.00
2018-12-13T08:05:47.148Z,5.10
2018-12-13T08:08:20.825Z,5.10
2018-12-13T08:13:53.759Z,5.10
2018-12-13T08:16:34.819Z,5.00
2018-12-13T08:22:11.560Z,5.10
2018-12-13T08:24:43.397Z,5.10
2018-12-13T08:27:15.577Z,5.00
2018-12-13T08:29:54.006Z,5.10
2018-12-13T08:32:28.359Z,5.10
2018-12-13T08:34:59.642Z,5.10
2018-12-13T08:37:33.586Z,5.10
2018-12-13T08:40:05.916Z,5.10
2018-12-13T08:42:43.746Z,5.10
2018-12-13T08:45:11.874Z,5.10
2018-12-13T08:47:39.992Z,5.10
2018-12-13T08:50:08.131Z,5.10
2018-12-13T08:52:36.230Z,5.10
2018-12-13T08:55:04.528Z,5.10
2018-12-13T08:57:32.661Z,5.10
2018-12-13T09:00:00.785Z,5.10
2018-12-13T09:02:28.892Z,5.10
2018-12-13T09:04:57.021Z,5.10
2018-12-13T09:07:25.146Z,5.10
2018-12-13T09:09:53.426Z,5.10
2018-12-13T09:12:21.557Z,5.10
2018-12-13T09:14:49.691Z,5.10
2018-12-13T09:17:17.808Z,5.10
2018-12-13T09:19:45.938Z,5.10
2018-12-13T09:22:14.052Z,5.10
2018-12-13T09:24:42.166Z,5.10
2018-12-13T09:27:10.284Z,5.10
2018-12-13T09:29:38.390Z,5.10
2018-12-13T09:32:06.515Z,5.10
2018-12-13T09:34:34.624Z,5.10
2018-12-13T09:37:02.757Z,5.10
2018-12-13T09:39:30.871Z,5.10
2018-12-13T09:41:59.006Z,5.20
2018-12-13T09:44:27.131Z,5.20
2018-12-13T09:46:55.274Z,5.20
2018-12-13T09:49:23.389Z,5.20
2018-12-13T09:51:51.498Z,5.20
2018-12-13T09:54:19.616Z,5.20
2018-12-13T09:56:47.750Z,5.20
2018-12-13T09:59:15.888Z,5.30
2018-12-13T10:01:44.007Z,5.20
2018-12-13T10:04:12.132Z,5.20
2018-12-13T10:06:40.235Z,5.30
2018-12-13T10:09:08.350Z,5.20
2018-12-13T10:11:36.480Z,5.30
2018-12-13T10:14:04.595Z,5.20
2018-12-13T10:16:32.721Z,5.30
2018-12-13T10:19:00.858Z,5.30
2018-12-13T10:21:28.979Z,5.30
2018-12-13T10:23:57.092Z,5.30
2018-12-13T10:26:25.239Z,5.30
2018-12-13T10:28:53.374Z,5.30
2018-12-13T10:31:21.537Z,5.40
2018-12-13T10:33:49.652Z,5.40
2018-12-13T10:36:17.768Z,5.40
2018-12-13T10:38:45.911Z,5.40
2018-12-13T10:41:14.037Z,5.40
2018-12-13T10:43:42.167Z,5.40
2018-12-13T10:46:10.312Z,5.40
2018-12-13T10:48:38.434Z,5.40
2018-12-13T10:51:06.554Z,5.50
2018-12-13T10:53:34.673Z,5.50
2018-12-13T10:56:02.839Z,5.50
2018-12-13T10:58:30.956Z,5.50
2018-12-13T11:01:04.633Z,5.50
2018-12-13T11:03:35.791Z,5.50
2018-12-13T11:06:03.920Z,5.60
2018-12-13T11:08:32.047Z,5.60
2018-12-13T11:11:00.156Z,5.60
2018-12-13T11:13:28.288Z,5.60
2018-12-13T11:15:56.442Z,5.60
2018-12-13T11:18:24.572Z,5.20
2018-12-13T11:20:52.676Z,5.60
2018-12-13T11:23:20.778Z,5.60
2018-12-13T11:25:48.892Z,5.60
2018-12-13T11:31:24.152Z,5.70
2018-12-13T11:33:52.258Z,5.70
2018-12-13T11:36:20.809Z,5.70
2018-12-13T11:38:48.910Z,5.70
2018-12-13T11:41:17.029Z,5.70
2018-12-13T11:43:45.172Z,5.80
2018-12-13T11:46:13.288Z,5.80
2018-12-13T11:48:41.387Z,5.80
2018-12-13T11:51:09.504Z,5.80
2018-12-13T11:53:37.609Z,5.90
2018-12-13T11:56:05.711Z,5.90
2018-12-13T11:58:33.825Z,6.00
2018-12-13T12:01:01.929Z,6.00
2018-12-13T12:03:30.044Z,6.00
2018-12-13T12:05:58.148Z,6.00
2018-12-13T12:08:26.273Z,6.00
2018-12-13T12:10:54.376Z,6.00
2018-12-13T12:13:22.490Z,6.00
2018-12-13T12:15:50.622Z,6.00
2018-12-13T12:18:18.734Z,6.00
2018-12-13T12:20:46.831Z,6.00
2018-12-13T12:23:14.959Z,6.10
2018-12-13T12:25:43.058Z,6.10
2018-12-13T12:28:11.166Z,6.10
2018-12-13T12:30:39.548Z,6.10
2018-12-13T12:33:07.646Z,6.10
2018-12-13T12:35:35.757Z,6.10
2018-12-13T12:38:03.885Z,6.10
2018-12-13T12:40:32.011Z,6.10
2018-12-13T12:43:00.127Z,6.10
2018-12-13T12:45:28.235Z,6.10
2018-12-13T12:47:56.339Z,6.10
2018-12-13T12:50:24.446Z,6.10
2018-12-13T12:52:52.571Z,6.10
2018-12-13T12:55:20.668Z,6.20
2018-12-13T12:57:48.795Z,6.20
2018-12-13T13:00:16.886Z,6.20
2018-12-13T13:02:45.061Z,6.20
2018-12-13T13:05:13.156Z,6.20
2018-12-13T13:07:41.274Z,6.20
2018-12-13T13:10:09.378Z,6.20
2018-12-13T13:12:37.483Z,6.20
2018-12-13T13:15:05.696Z,6.20
2018-12-13T13:17:33.823Z,6.20
2018-12-13T13:20:01.930Z,6.20
2018-12-13T13:22:30.052Z,6.20
2018-12-13T13:24:58.147Z,6.20
2018-12-13T13:27:26.285Z,6.20
2018-12-13T13:29:54.399Z,6.20
2018-12-13T13:32:22.521Z,6.20
2018-12-13T13:34:50.621Z,6.20
2018-12-13T13:37:18.728Z,6.20
2018-12-13T13:39:46.837Z,6.20
2018-12-13T13:42:14.964Z,6.20
2018-12-13T13:44:43.248Z,6.20
2018-12-13T13:47:11.371Z,6.20
2018-12-13T13:49:39.484Z,6.20
2018-12-13T13:52:08.696Z,6.20
2018-12-13T13:54:37.042Z,6.20
2018-12-13T13:57:05.164Z,6.20
2018-12-13T13:59:33.399Z,6.20
2018-12-13T14:02:01.521Z,6.20
2018-12-13T14:04:29.626Z,6.20
2018-12-13T14:06:57.741Z,6.20
2018-12-13T14:09:25.848Z,6.20
2018-12-13T14:11:53.949Z,6.20
2018-12-13T14:14:22.060Z,6.20
2018-12-13T14:16:50.169Z,6.20
2018-12-13T14:19:18.282Z,6.20
2018-12-13T14:21:46.425Z,6.20
2018-12-13T14:24:14.662Z,6.20
2018-12-13T14:26:42.771Z,6.20
2018-12-13T14:29:10.881Z,6.20
2018-12-13T14:31:38.990Z,6.20
2018-12-13T14:34:07.114Z,6.20
2018-12-13T14:36:35.213Z,6.10
2018-12-13T14:39:04.376Z,6.10
2018-12-13T14:41:32.484Z,6.10
2018-12-13T14:44:00.602Z,6.10
2018-12-13T14:46:28.699Z,6.10
2018-12-13T14:48:56.805Z,6.10
2018-12-13T14:51:24.917Z,6.10
2018-12-13T14:53:53.042Z,6.10
2018-12-13T14:56:21.151Z,6.10
2018-12-13T14:58:49.259Z,6.10
2018-12-13T15:01:17.373Z,6.10
2018-12-13T15:03:45.475Z,6.10
2018-12-13T15:06:13.581Z,6.10
2018-12-13T15:08:41.702Z,6.00
2018-12-13T15:11:09.795Z,6.00
2018-12-13T15:13:37.915Z,6.00
2018-12-13T15:16:06.016Z,6.00
2018-12-13T15:18:34.138Z,6.00
2018-12-13T15:21:02.237Z,6.00
2018-12-13T15:23:30.338Z,6.00
2018-12-13T15:25:58.440Z,6.00
2018-12-13T15:28:26.558Z,6.00
2018-12-13T15:30:54.665Z,6.00
2018-12-13T15:33:22.788Z,6.00
2018-12-13T15:35:50.891Z,6.00
2018-12-13T15:38:19.076Z,6.00
2018-12-13T15:40:47.214Z,6.00
2018-12-13T15:43:15.751Z,6.00
2018-12-13T15:45:43.853Z,6.00
2018-12-13T15:48:11.969Z,6.00
2018-12-13T15:50:40.072Z,6.00
2018-12-13T15:53:08.221Z,6.00
2018-12-13T15:55:36.317Z,6.00
2018-12-13T15:58:04.440Z,6.00
2018-12-13T16:00:32.546Z,6.00
2018-12-13T16:03:00.717Z,6.00
2018-12-13T16:05:28.825Z,6.00
2018-12-13T16:07:56.929Z,6.00
2018-12-13T16:10:25.044Z,6.00
2018-12-13T16:12:53.162Z,6.00
2018-12-13T16:15:21.283Z,6.00
2018-12-13T16:17:49.402Z,6.00
2018-12-13T16:20:17.504Z,6.00
2018-12-13T16:22:45.626Z,6.00
2018-12-13T16:25:13.750Z,6.00
2018-12-13T16:27:41.855Z,6.00
2018-12-13T16:30:10.229Z,6.00
2018-12-13T16:32:38.336Z,6.00
2018-12-13T16:35:06.463Z,6.10
2018-12-13T16:37:34.572Z,6.10
2018-12-13T16:40:02.690Z,6.10
2018-12-13T16:42:30.784Z,6.10
2018-12-13T16:44:58.897Z,6.10
2018-12-13T16:47:27.026Z,6.10
2018-12-13T16:49:55.144Z,6.10
2018-12-13T16:52:23.244Z,6.10
2018-12-13T16:54:51.361Z,6.10
2018-12-13T16:57:19.470Z,6.10
2018-12-13T16:59:47.587Z,6.10
2018-12-13T17:02:15.681Z,6.10
2018-12-13T17:04:43.793Z,6.10
2018-12-13T17:07:11.911Z,6.10
2018-12-13T17:09:40.055Z,6.10
2018-12-13T17:12:08.169Z,6.10
2018-12-13T17:14:36.305Z,6.10
2018-12-13T17:17:04.409Z,6.10
2018-12-13T17:19:32.529Z,6.10
2018-12-13T17:22:00.645Z,6.10
2018-12-13T17:24:28.770Z,6.10
2018-12-13T17:26:56.881Z,6.10
2018-12-13T17:29:25.007Z,6.20
2018-12-13T17:31:53.136Z,6.10
2018-12-13T17:34:21.257Z,6.10
2018-12-13T17:36:49.351Z,6.10
2018-12-13T17:39:17.460Z,6.10
2018-12-13T17:41:45.559Z,6.20
2018-12-13T17:44:13.675Z,6.20
2018-12-13T17:46:41.800Z,6.10
2018-12-13T17:49:09.922Z,6.20
2018-12-13T17:51:38.029Z,6.20
2018-12-13T17:54:06.146Z,6.10
2018-12-13T17:56:34.247Z,6.20
2018-12-13T17:59:02.391Z,6.20
2018-12-13T18:01:30.502Z,6.20
2018-12-13T18:03:58.642Z,6.10
2018-12-13T18:06:26.745Z,6.10
2018-12-13T18:08:54.868Z,6.10
2018-12-13T18:11:22.965Z,6.20
2018-12-13T18:13:51.083Z,6.10
2018-12-13T18:16:19.196Z,6.20
2018-12-13T18:18:47.301Z,6.20
2018-12-13T18:21:15.423Z,6.20
2018-12-13T18:23:43.525Z,6.20
2018-12-13T18:26:11.652Z,6.20
2018-12-13T18:28:39.802Z,6.20
2018-12-13T18:31:07.908Z,6.20
2018-12-13T18:33:36.030Z,6.20
2018-12-13T18:36:04.152Z,6.20
2018-12-13T18:38:32.259Z,6.10
2018-12-13T18:41:00.499Z,6.10
2018-12-13T18:43:28.609Z,6.10
2018-12-13T18:45:56.751Z,6.10
2018-12-13T18:48:24.958Z,6.10
2018-12-13T18:50:53.083Z,6.10
2018-12-13T18:53:21.187Z,6.10
2018-12-13T18:55:49.306Z,6.10
2018-12-13T18:58:17.470Z,6.10
2018-12-13T19:00:45.635Z,6.10
2018-12-13T19:03:13.742Z,6.20
2018-12-13T19:05:41.866Z,6.20
2018-12-13T19:08:10.011Z,6.20
2018-12-13T19:10:41.871Z,6.20
2018-12-13T19:13:08.283Z,6.20
2018-12-13T19:15:36.447Z,6.20
2018-12-13T19:18:04.603Z,6.20
2018-12-13T19:20:32.727Z,6.20
2018-12-13T19:23:00.829Z,6.20
2018-12-13T19:25:28.936Z,6.20
2018-12-13T19:27:57.058Z,6.20
2018-12-13T19:30:25.196Z,6.20
2018-12-13T19:32:53.343Z,6.20
2018-12-13T19:35:21.469Z,6.20
2018-12-13T19:37:50.674Z,6.20
2018-12-13T19:40:19.070Z,6.20
2018-12-13T19:42:47.192Z,6.20
2018-12-13T19:45:15.320Z,6.20
2018-12-13T19:47:43.428Z,6.20
2018-12-13T19:50:11.542Z,6.20
2018-12-13T19:52:39.660Z,6.10
2018-12-13T19:55:08.244Z,6.10
2018-12-13T19:57:36.372Z,6.10
2018-12-13T20:00:07.920Z,6.10
2018-12-13T20:02:36.061Z,6.10
2018-12-13T20:05:05.405Z,6.10
2018-12-13T20:07:33.533Z,6.10
2018-12-13T20:10:01.639Z,6.10
2018-12-13T20:12:29.750Z,6.10
2018-12-13T20:14:57.883Z,6.10
2018-12-13T20:17:26.043Z,6.10
2018-12-13T20:19:54.169Z,6.10
2018-12-13T20:22:22.295Z,6.10
2018-12-13T20:24:50.416Z,6.10
2018-12-13T20:27:18.539Z,6.10
2018-12-13T20:29:46.703Z,6.10
2018-12-13T20:32:14.832Z,6.10
2018-12-13T20:34:43.251Z,6.10
2018-12-13T20:37:11.376Z,6.10
2018-12-13T20:39:39.842Z,6.10
2018-12-13T20:42:07.955Z,6.10
2018-12-13T20:44:36.132Z,6.10
2018-12-13T20:47:04.255Z,6.10
2018-12-13T20:49:32.372Z,6.10
2018-12-13T20:52:01.297Z,6.10
2018-12-13T20:54:29.412Z,6.10
2018-12-13T20:56:57.704Z,6.10
2018-12-13T20:59:25.908Z,6.10
2018-12-13T21:01:54.023Z,6.10
2018-12-13T21:04:22.125Z,6.00
2018-12-13T21:06:52.246Z,6.10
2018-12-13T21:09:20.346Z,6.10
2018-12-13T21:11:48.487Z,6.10
2018-12-13T21:14:16.707Z,6.10
2018-12-13T21:16:44.817Z,6.00
2018-12-13T21:19:12.926Z,6.00
2018-12-13T21:21:41.045Z,6.10
2018-12-13T21:24:09.181Z,6.10
2018-12-13T21:26:37.315Z,6.00
2018-12-13T21:29:05.540Z,6.00
2018-12-13T21:31:33.669Z,6.00
2018-12-13T21:34:01.766Z,6.00
2018-12-13T21:36:29.870Z,6.00
2018-12-13T21:38:57.998Z,6.00
2018-12-13T21:41:26.104Z,6.10
2018-12-13T21:43:54.287Z,6.10
2018-12-13T21:46:22.435Z,6.00
2018-12-13T21:48:50.732Z,6.10
2018-12-13T21:51:18.834Z,6.10
2018-12-13T21:53:46.952Z,6.10
2018-12-13T21:56:15.069Z,6.10
2018-12-13T21:58:43.183Z,6.10
2018-12-13T22:01:11.344Z,6.10
2018-12-13T22:03:39.470Z,6.10
2018-12-13T22:06:07.580Z,6.10
2018-12-13T22:08:35.697Z,6.10
2018-12-13T22:11:03.806Z,6.10
2018-12-13T22:13:31.941Z,6.10
2018-12-13T22:16:00.080Z,6.10
2018-12-13T22:18:28.237Z,6.00
2018-12-13T22:20:56.385Z,6.00
2018-12-13T22:23:24.498Z,6.00
2018-12-13T22:25:52.739Z,6.00
2018-12-13T22:28:20.865Z,6.00
2018-12-13T22:30:48.963Z,6.00
2018-12-13T22:33:18.230Z,6.00
2018-12-13T22:35:48.349Z,6.00
2018-12-13T22:38:17.343Z,6.00
2018-12-13T22:40:46.847Z,6.00
2018-12-13T22:43:20.565Z,6.00
2018-12-13T22:45:47.804Z,6.00
2018-12-13T22:48:17.616Z,6.00
2018-12-13T22:50:48.247Z,6.00
2018-12-13T22:53:18.366Z,6.00
2018-12-13T22:55:48.892Z,6.00
2018-12-13T22:58:17.990Z,6.00
2018-12-13T23:00:48.099Z,6.00
2018-12-13T23:03:17.205Z,6.00
2018-12-13T23:05:53.775Z,6.00
2018-12-13T23:08:22.871Z,6.00
2018-12-13T23:10:52.888Z,6.00
2018-12-13T23:13:22.496Z,6.00
2018-12-13T23:15:52.098Z,6.00
2018-12-13T23:18:26.721Z,6.00
2018-12-13T23:20:54.858Z,6.00
2018-12-13T23:23:22.975Z,6.00
2018-12-13T23:25:51.102Z,6.00
2018-12-13T23:28:19.208Z,6.00
2018-12-13T23:30:47.328Z,6.00
2018-12-13T23:33:15.454Z,6.00
2018-12-13T23:35:43.571Z,6.00
2018-12-13T23:38:11.697Z,6.00
2018-12-13T23:40:39.829Z,6.00
2018-12-13T23:43:07.941Z,6.00
2018-12-13T23:45:36.063Z,6.00
2018-12-13T23:48:04.186Z,6.00
2018-12-13T23:50:32.285Z,6.00
2018-12-13T23:53:00.406Z,6.00
2018-12-13T23:55:28.515Z,6.00
2018-12-13T23:57:56.657Z,6.00
